Machida, Japan
Current Conditions -  °F | °C
As of 9:58 AM on Monday 24 Nov 2014 (Local Time) from RJTY Reporting Station
Broken Clouds Broken Clouds  
Wind Chill: 54°   Ceiling: 3500
Heat Index: 54°   Visibility: 10mi
Dew Point: 44°   Wind: 2mph
Humidity: 68%   Direction: 360°N
Pressure: 30.27"   Gusts: NA
Location:  35.56°N, 139.43°E
Report Text: RJTY 240058Z AUTO 36002KT 10SM BKN035 BKN130 12/07 A3027 RMK AO2 SLP256 T01230065 $
Loading
Personal Weather Stations






























Interactive Weather Map New forecast layout! Learn more

10-Day Weather Forecast

Advertisements
Track Severe Weather on mobile